SESA/SNC METAR and TAF weather

Enter ICAO airport designator
Station Type Date Time Source
SESA METAR 2020/09/19 22:00 UTC NOAA

SESA 192200Z 21009KT 9999 BKN013 22/19 Q1011 RMK A2986


Station Type Date Time Source
SESA Decoded METAR 2020/09/19 22:00 UTC NOAA

Salinas / General Ulpiano Paez, Ecuador (SESA) 02-12S 080-59W 8M
Sep 19, 2020 - 06:00 PM EDT / 2020.09.19 2200 UTC
Wind: from the SSW (210 degrees) at 10 MPH (9 KT):0
Visibility: greater than 7 mile(s):0
Sky conditions: mostly cloudy
Temperature: 71 F (22 C)
Dew Point: 66 F (19 C)
Relative Humidity: 83%
Pressure (altimeter): 29.85 in. Hg (1011 hPa)
ob: SESA 192200Z 21009KT 9999 BKN013 22/19 Q1011 RMK A2986
cycle: 22

Station Type Date Time Source
SESA TAF UTC NOAA

Error!

Example: see airport list